Time;durP1;ratioP1;P1;durP2;ratioP2;P2;SDS_P1;SDS_P2;PMS_P1;PMS_P2;Temp;Humidity;BMP_temperature;BMP_pressure;BME280_temperature;BME280_humidity;BME280_pressure;Samples;Min_cycle;Max_cycle;Signal;HPM_P1;HPM_P2
2023/01/10 00:01:57;;;;;;;;;;;;;;;6.22;81.27;100259.19;4176414;28;20712;-66
2023/01/10 00:04:30;;;;;;;;;;;;;;;6.21;81.04;100268.25;4188063;28;19946;-65
2023/01/10 00:06:38;;;;;;;;;;;;;;;6.19;81.03;100270.25;4169700;28;19956;-66
2023/01/10 00:09:10;;;;;;;;;;;;;;;6.15;81.34;100268.91;4186100;28;20023;-66
2023/01/10 00:13:39;;;;;;;;;;;;;;;6.19;81.47;100270.25;4185812;28;20370;-64
2023/01/10 00:15:50;;;;;;;;;;;;;;;6.20;81.48;100277.28;4186676;28;19956;-65
2023/01/10 00:17:54;;;;;;;;;;;;;;;6.20;81.68;100272.75;4158563;28;19933;-65
2023/01/10 00:19:57;;;;;;;;;;;;;;;6.21;81.62;100273.63;4160094;28;19929;-64
2023/01/10 00:22:12;;;;;;;;;;;;;;;6.21;81.55;100270.94;4153210;28;20348;-65
2023/01/10 00:24:20;;;;;;;;;;;;;;;6.22;81.93;100270.78;4161636;28;20334;-65
2023/01/10 00:26:23;;;;;;;;;;;;;;;6.23;81.92;100271.63;4155407;28;19928;-64
2023/01/10 00:28:26;;;;;;;;;;;;;;;6.24;81.96;100273.31;4155866;28;19921;-64
2023/01/10 00:30:34;;;;;;;;;;;;;;;6.26;82.05;100277.50;4155529;28;19952;-64
2023/01/10 00:32:36;;;;;;;;;;;;;;;6.26;81.79;100280.16;4163355;28;19997;-65
2023/01/10 00:34:41;;;;;;;;;;;;;;;6.28;81.57;100275.47;4171888;28;20015;-65
2023/01/10 00:36:46;;;;;;;;;;;;;;;6.29;81.85;100273.66;4171212;28;19962;-64
2023/01/10 00:38:49;;;;;;;;;;;;;;;6.30;81.83;100283.34;4168783;28;20011;-64
2023/01/10 00:40:52;;;;;;;;;;;;;;;6.29;81.39;100274.50;4186367;28;20012;-64
2023/01/10 00:45:15;;;;;;;;;;;;;;;6.31;81.80;100280.53;4171279;28;20438;-64
2023/01/10 00:47:22;;;;;;;;;;;;;;;6.35;81.73;100285.56;4168045;28;19960;-64
2023/01/10 00:49:27;;;;;;;;;;;;;;;6.37;81.66;100288.94;4169277;28;19921;-64
2023/01/10 00:51:30;;;;;;;;;;;;;;;6.37;81.25;100305.88;4170423;28;19921;-65
2023/01/10 00:53:34;;;;;;;;;;;;;;;6.39;81.60;100300.34;4154809;28;19964;-64
2023/01/10 00:55:37;;;;;;;;;;;;;;;6.39;81.52;100305.72;4155554;28;20028;-65
2023/01/10 00:57:39;;;;;;;;;;;;;;;6.38;81.15;100309.38;4156153;28;19921;-65
2023/01/10 00:59:42;;;;;;;;;;;;;;;6.39;81.20;100305.72;4155759;28;19921;-64
2023/01/10 01:01:47;;;;;;;;;;;;;;;6.39;81.23;100311.06;4156995;28;19929;-64
2023/01/10 01:03:51;;;;;;;;;;;;;;;6.39;81.60;100314.59;4172379;28;20423;-64
2023/01/10 01:05:53;;;;;;;;;;;;;;;6.41;81.26;100319.78;4171669;28;20011;-65
2023/01/10 01:07:56;;;;;;;;;;;;;;;6.41;81.41;100322.47;4155748;28;20093;-65
2023/01/10 01:12:19;;;;;;;;;;;;;;;6.41;81.17;100327.84;4156076;28;20415;-64
2023/01/10 01:14:21;;;;;;;;;;;;;;;6.42;81.25;100342.94;4155196;28;19925;-64
2023/01/10 01:16:24;;;;;;;;;;;;;;;6.44;81.34;100354.34;4154101;28;20028;-65
2023/01/10 01:18:27;;;;;;;;;;;;;;;6.45;81.15;100364.91;4155028;28;20544;-64
2023/01/10 01:20:32;;;;;;;;;;;;;;;6.46;81.30;100357.75;4155205;28;20016;-65
2023/01/10 01:22:37;;;;;;;;;;;;;;;6.47;81.01;100364.75;4154058;28;19964;-64
2023/01/10 01:24:40;;;;;;;;;;;;;;;6.47;81.38;100370.13;4155452;28;20013;-66
2023/01/10 01:26:42;;;;;;;;;;;;;;;6.47;81.44;100375.50;4153651;28;20007;-64
2023/01/10 01:28:45;;;;;;;;;;;;;;;6.48;81.24;100382.56;4154623;28;19921;-65
2023/01/10 01:30:47;;;;;;;;;;;;;;;6.47;81.19;100384.41;4154028;28;19931;-66
2023/01/10 01:32:53;;;;;;;;;;;;;;;6.49;81.20;100400.34;4172551;28;19955;-64
2023/01/10 01:34:59;;;;;;;;;;;;;;;6.49;81.34;100401.19;4167646;28;19925;-65
2023/01/10 01:37:03;;;;;;;;;;;;;;;6.52;81.55;100407.22;4175505;28;19925;-65
2023/01/10 01:39:08;;;;;;;;;;;;;;;6.52;81.39;100413.44;4184873;28;19974;-65
2023/01/10 01:43:31;;;;;;;;;;;;;;;6.52;81.27;100416.13;4184735;28;19932;-65
2023/01/10 01:45:40;;;;;;;;;;;;;;;6.52;81.42;100413.44;4186564;28;19944;-65
2023/01/10 01:47:44;;;;;;;;;;;;;;;6.52;81.17;100413.44;4159416;28;19952;-63
2023/01/10 01:49:46;;;;;;;;;;;;;;;6.50;81.02;100420.78;4185798;28;20407;-65
2023/01/10 01:51:48;;;;;;;;;;;;;;;6.49;81.16;100422.63;4185580;28;19920;-64
2023/01/10 01:53:54;;;;;;;;;;;;;;;6.51;81.36;100430.53;4185886;28;20429;-65
2023/01/10 01:55:59;;;;;;;;;;;;;;;6.53;81.20;100431.22;4186070;28;20018;-64
2023/01/10 01:58:01;;;;;;;;;;;;;;;6.54;81.11;100430.22;4185231;28;20362;-65
2023/01/10 02:00:04;;;;;;;;;;;;;;;6.54;81.23;100434.75;4186058;28;20007;-65
2023/01/10 02:02:14;;;;;;;;;;;;;;;6.56;81.31;100438.09;4185715;28;20007;-65
2023/01/10 02:04:17;;;;;;;;;;;;;;;6.55;80.77;100439.09;4183601;28;20007;-65
2023/01/10 02:06:19;;;;;;;;;;;;;;;6.55;80.83;100439.97;4185471;28;20011;-65
2023/01/10 02:08:21;;;;;;;;;;;;;;;6.53;80.88;100439.25;4184865;28;20003;-64
2023/01/10 02:10:25;;;;;;;;;;;;;;;6.53;81.15;100443.78;4186202;28;20026;-65
2023/01/10 02:12:27;;;;;;;;;;;;;;;6.53;80.79;100451.84;4184910;28;19947;-64
2023/01/10 02:14:29;;;;;;;;;;;;;;;6.53;80.93;100450.00;4185280;28;20008;-65
2023/01/10 02:16:31;;;;;;;;;;;;;;;6.52;81.05;100459.06;4186173;28;20408;-65
2023/01/10 02:18:33;;;;;;;;;;;;;;;6.54;81.23;100456.22;4185288;28;20008;-65
2023/01/10 02:20:37;;;;;;;;;;;;;;;6.53;81.35;100458.03;4185261;28;20016;-65
2023/01/10 02:22:54;;;;;;;;;;;;;;;6.53;81.15;100463.41;4185225;28;20007;-63
2023/01/10 02:25:13;;;;;;;;;;;;;;;6.54;80.89;100462.41;4185900;28;20019;-65
2023/01/10 02:27:22;;;;;;;;;;;;;;;6.55;80.89;100461.44;4185366;28;20032;-64
2023/01/10 02:29:42;;;;;;;;;;;;;;;6.56;80.64;100470.31;4186488;28;20464;-65
2023/01/10 02:31:56;;;;;;;;;;;;;;;6.56;80.84;100475.66;4182779;28;20046;-65
2023/01/10 02:33:59;;;;;;;;;;;;;;;6.56;80.96;100475.66;4184496;28;20466;-65
2023/01/10 02:36:03;;;;;;;;;;;;;;;6.57;80.85;100480.06;4186020;28;20089;-63
2023/01/10 02:38:08;;;;;;;;;;;;;;;6.56;80.84;100475.66;4185095;28;20043;-65
2023/01/10 02:40:12;;;;;;;;;;;;;;;6.56;80.91;100476.50;4185584;28;20003;-65
2023/01/10 02:42:15;;;;;;;;;;;;;;;6.56;80.73;100481.88;4168255;28;20003;-66
2023/01/10 02:44:18;;;;;;;;;;;;;;;6.56;80.62;100481.03;4185872;28;20026;-65
2023/01/10 02:46:23;;;;;;;;;;;;;;;6.56;80.96;100481.03;4186033;28;20007;-64
2023/01/10 02:48:27;;;;;;;;;;;;;;;6.55;81.06;100490.06;4185423;28;20003;-66
2023/01/10 02:50:30;;;;;;;;;;;;;;;6.53;80.77;100487.56;4185415;28;20108;-65
2023/01/10 02:52:32;;;;;;;;;;;;;;;6.52;80.71;100490.38;4185327;28;20003;-65
2023/01/10 02:54:35;;;;;;;;;;;;;;;6.51;81.06;100491.41;4185976;28;19928;-65
2023/01/10 02:56:55;;;;;;;;;;;;;;;6.52;80.98;100499.31;4184865;28;20030;-65
2023/01/10 02:59:04;;;;;;;;;;;;;;;6.51;80.97;100499.47;4185509;28;20031;-64
2023/01/10 03:01:06;;;;;;;;;;;;;;;6.50;80.99;100501.28;4185359;28;20028;-64
2023/01/10 03:03:16;;;;;;;;;;;;;;;6.51;81.01;100500.28;4184667;28;19999;-64
2023/01/10 03:05:22;;;;;;;;;;;;;;;6.51;81.11;100508.34;4185266;28;20011;-65
2023/01/10 03:07:26;;;;;;;;;;;;;;;6.48;80.88;100509.47;4185116;28;20509;-66
2023/01/10 03:09:30;;;;;;;;;;;;;;;6.47;81.16;100513.19;4185661;28;20027;-65
2023/01/10 03:11:41;;;;;;;;;;;;;;;6.46;81.44;100526.75;4185264;28;20044;-65
2023/01/10 03:13:43;;;;;;;;;;;;;;;6.47;81.36;100528.41;4182039;28;19967;-64
2023/01/10 03:15:48;;;;;;;;;;;;;;;6.46;81.27;100535.63;4186252;28;20012;-65
2023/01/10 03:18:19;;;;;;;;;;;;;;;6.45;81.32;100542.00;4183085;28;20004;-65
2023/01/10 03:20:22;;;;;;;;;;;;;;;6.46;81.62;100549.06;4185970;28;20007;-64
2023/01/10 03:22:24;;;;;;;;;;;;;;;6.45;81.61;100549.19;4185269;28;20437;-65
2023/01/10 03:24:27;;;;;;;;;;;;;;;6.44;81.80;100552.88;4185640;28;20012;-66
2023/01/10 03:26:29;;;;;;;;;;;;;;;6.45;82.08;100562.63;4186059;28;20028;-63
2023/01/10 03:28:32;;;;;;;;;;;;;;;6.45;82.04;100560.75;4182730;28;20395;-65
2023/01/10 03:30:35;;;;;;;;;;;;;;;6.47;82.22;100572.22;4184551;28;20007;-66
2023/01/10 03:32:37;;;;;;;;;;;;;;;6.47;81.92;100564.16;4186860;28;20463;-64
2023/01/10 03:34:39;;;;;;;;;;;;;;;6.48;81.79;100575.72;4186022;28;20016;-65
2023/01/10 03:36:45;;;;;;;;;;;;;;;6.47;82.19;100577.56;4187931;28;19951;-65
2023/01/10 03:38:47;;;;;;;;;;;;;;;6.48;82.16;100581.09;4187893;28;20020;-66
2023/01/10 03:40:51;;;;;;;;;;;;;;;6.47;82.34;100574.91;4184458;28;20024;-63
2023/01/10 03:45:15;;;;;;;;;;;;;;;6.48;82.63;100578.41;4187196;28;20043;-64
2023/01/10 03:47:19;;;;;;;;;;;;;;;6.49;82.75;100580.94;4181332;28;20012;-64
2023/01/10 03:49:22;;;;;;;;;;;;;;;6.49;82.92;100591.66;4171533;28;20035;-66
2023/01/10 03:51:24;;;;;;;;;;;;;;;6.51;82.93;100596.06;4171802;28;20015;-64
2023/01/10 03:53:27;;;;;;;;;;;;;;;6.45;82.83;100579.53;4185875;28;20011;-64
2023/01/10 03:55:29;;;;;;;;;;;;;;;6.49;83.00;100601.56;4188722;28;20024;-66
2023/01/10 03:57:31;;;;;;;;;;;;;;;6.48;83.24;100603.38;4179547;28;19978;-66
2023/01/10 03:59:33;;;;;;;;;;;;;;;6.50;83.72;100611.28;4188198;28;20063;-66
2023/01/10 04:01:35;;;;;;;;;;;;;;;6.49;83.65;100623.03;4186707;28;20019;-66
2023/01/10 04:03:37;;;;;;;;;;;;;;;6.51;83.86;100641.66;4188371;28;20019;-66
2023/01/10 04:05:39;;;;;;;;;;;;;;;6.52;83.52;100632.59;4186822;28;20365;-65
2023/01/10 04:07:40;;;;;;;;;;;;;;;6.53;83.70;100635.13;4187126;28;20039;-66
2023/01/10 04:09:44;;;;;;;;;;;;;;;6.54;83.88;100646.72;4187745;28;20354;-65
2023/01/10 04:11:46;;;;;;;;;;;;;;;6.54;84.25;100649.41;4183791;28;20377;-66
2023/01/10 04:13:48;;;;;;;;;;;;;;;6.55;84.26;100656.44;4170812;28;20322;-66
2023/01/10 04:15:50;;;;;;;;;;;;;;;6.55;84.64;100659.13;4170443;28;20012;-65
2023/01/10 04:17:52;;;;;;;;;;;;;;;6.55;84.62;100664.50;4170788;28;19932;-65
2023/01/10 04:19:54;;;;;;;;;;;;;;;6.54;85.05;100669.03;4171476;28;20423;-66
2023/01/10 04:21:56;;;;;;;;;;;;;;;6.54;85.03;100666.34;4170300;28;20367;-65
2023/01/10 04:23:58;;;;;;;;;;;;;;;6.53;85.17;100674.53;4171826;28;20035;-66
2023/01/10 04:26:01;;;;;;;;;;;;;;;6.53;85.33;100679.91;4171633;28;20019;-66
2023/01/10 04:28:03;;;;;;;;;;;;;;;6.52;85.25;100681.75;4171173;28;20019;-65
2023/01/10 04:30:06;;;;;;;;;;;;;;;6.52;85.44;100689.81;4173274;28;20019;-65
2023/01/10 04:32:08;;;;;;;;;;;;;;;6.54;85.78;100695.84;4171760;28;20385;-65
2023/01/10 04:34:10;;;;;;;;;;;;;;;6.52;85.41;100695.19;4171447;28;20019;-66
2023/01/10 04:36:12;;;;;;;;;;;;;;;6.53;85.55;100704.06;4171623;28;20442;-65
2023/01/10 04:38:14;;;;;;;;;;;;;;;6.53;85.63;100706.75;4183140;28;20429;-66
2023/01/10 04:40:18;;;;;;;;;;;;;;;6.55;85.26;100710.09;4187555;28;20648;-65
2023/01/10 04:42:22;;;;;;;;;;;;;;;6.54;85.42;100711.97;4185760;28;20426;-65
2023/01/10 04:44:24;;;;;;;;;;;;;;;6.54;85.24;100714.66;4186120;28;20019;-65
2023/01/10 04:46:26;;;;;;;;;;;;;;;6.54;85.25;100713.81;4186974;28;20361;-65
2023/01/10 04:48:28;;;;;;;;;;;;;;;6.54;85.05;100727.22;4187265;28;20829;-65
2023/01/10 04:50:30;;;;;;;;;;;;;;;6.53;85.15;100725.53;4187018;28;20015;-66
2023/01/10 04:52:32;;;;;;;;;;;;;;;6.53;85.07;100737.09;4187317;28;20008;-65
2023/01/10 04:54:34;;;;;;;;;;;;;;;6.52;85.04;100738.09;4187516;28;20011;-64
2023/01/10 04:56:36;;;;;;;;;;;;;;;6.52;85.05;100737.25;4186147;28;20023;-65
2023/01/10 04:58:39;;;;;;;;;;;;;;;6.53;85.00;100752.34;4187352;28;19924;-65
2023/01/10 05:00:41;;;;;;;;;;;;;;;6.53;85.42;100753.19;4187201;28;20007;-65
2023/01/10 05:02:43;;;;;;;;;;;;;;;6.53;85.16;100757.72;4186720;28;20026;-65
2023/01/10 05:04:45;;;;;;;;;;;;;;;6.51;85.22;100755.19;4186768;28;20018;-65
2023/01/10 05:06:48;;;;;;;;;;;;;;;6.48;85.34;100763.53;4186835;28;20326;-65
2023/01/10 05:08:50;;;;;;;;;;;;;;;6.45;85.34;100766.53;4185983;28;20023;-65
2023/01/10 05:10:52;;;;;;;;;;;;;;;6.43;85.54;100774.72;4185087;28;20011;-66
2023/01/10 05:12:54;;;;;;;;;;;;;;;6.43;85.39;100777.41;4174711;28;20345;-65
2023/01/10 05:14:57;;;;;;;;;;;;;;;6.43;85.37;100779.25;4170704;28;20020;-66
2023/01/10 05:16:59;;;;;;;;;;;;;;;6.43;85.41;100788.13;4172738;28;20039;-65
2023/01/10 05:19:01;;;;;;;;;;;;;;;6.42;85.77;100791.78;4186726;28;19996;-65
2023/01/10 05:21:03;;;;;;;;;;;;;;;6.44;85.58;100799.69;4187002;28;20032;-65
2023/01/10 05:23:05;;;;;;;;;;;;;;;6.43;85.63;100803.41;4173630;28;20017;-65
2023/01/10 05:25:08;;;;;;;;;;;;;;;6.42;85.72;100809.75;4171542;28;20023;-65
2023/01/10 05:27:10;;;;;;;;;;;;;;;6.41;85.91;100810.72;4170782;28;20082;-64
2023/01/10 05:29:13;;;;;;;;;;;;;;;6.41;85.65;100814.28;4171866;28;20445;-65
2023/01/10 05:31:17;;;;;;;;;;;;;;;6.43;85.66;100820.31;4171580;28;20363;-65
2023/01/10 05:33:18;;;;;;;;;;;;;;;6.43;85.97;100819.50;4172177;28;20020;-63
2023/01/10 05:35:20;;;;;;;;;;;;;;;6.45;85.77;100833.59;4171823;28;20019;-64
2023/01/10 05:37:22;;;;;;;;;;;;;;;6.45;85.61;100831.75;4176746;28;20003;-66
2023/01/10 05:39:24;;;;;;;;;;;;;;;6.46;85.67;100835.28;4186728;28;20328;-65
2023/01/10 05:41:26;;;;;;;;;;;;;;;6.47;85.94;100834.28;4186148;28;20030;-65
2023/01/10 05:43:29;;;;;;;;;;;;;;;6.46;85.82;100841.50;4155977;28;20451;-66
2023/01/10 05:45:31;;;;;;;;;;;;;;;6.47;85.73;100843.19;4154895;28;20004;-65
2023/01/10 05:47:34;;;;;;;;;;;;;;;6.47;85.40;100851.25;4154497;28;20016;-65
2023/01/10 05:49:37;;;;;;;;;;;;;;;6.47;85.82;100845.00;4154620;28;20015;-65
2023/01/10 05:51:38;;;;;;;;;;;;;;;6.47;85.76;100848.56;4154452;28;20456;-65
2023/01/10 05:53:40;;;;;;;;;;;;;;;6.48;85.53;100854.75;4170595;28;20048;-66
2023/01/10 05:55:42;;;;;;;;;;;;;;;6.47;85.54;100850.38;4169753;28;20443;-66
2023/01/10 05:57:44;;;;;;;;;;;;;;;6.46;85.79;100854.06;4169113;28;20027;-65
2023/01/10 05:59:46;;;;;;;;;;;;;;;6.45;85.98;100858.56;4168766;28;20367;-65
2023/01/10 06:01:48;;;;;;;;;;;;;;;6.46;86.01;100852.22;4171190;28;20016;-65
2023/01/10 06:03:52;;;;;;;;;;;;;;;6.46;86.07;100865.66;4186381;28;20019;-66
2023/01/10 06:05:54;;;;;;;;;;;;;;;6.49;86.00;100869.88;4186313;28;20011;-65
2023/01/10 06:07:55;;;;;;;;;;;;;;;6.51;86.03;100870.56;4185146;28;20023;-64
2023/01/10 06:09:57;;;;;;;;;;;;;;;6.53;85.88;100876.63;4185654;28;20011;-66
2023/01/10 06:11:59;;;;;;;;;;;;;;;6.54;86.19;100881.00;4184297;28;20462;-66
2023/01/10 06:14:01;;;;;;;;;;;;;;;6.55;85.90;100884.53;4185676;28;20011;-64
2023/01/10 06:16:04;;;;;;;;;;;;;;;6.55;85.61;100892.59;4186662;28;20327;-66
2023/01/10 06:18:06;;;;;;;;;;;;;;;6.55;85.46;100892.59;4161479;28;20615;-66
2023/01/10 06:20:10;;;;;;;;;;;;;;;6.56;85.70;100902.34;4154377;28;20431;-68
2023/01/10 06:22:12;;;;;;;;;;;;;;;6.57;85.72;100907.56;4156467;28;20384;-66
2023/01/10 06:24:14;;;;;;;;;;;;;;;6.60;85.32;100917.13;4184863;28;20019;-65
2023/01/10 06:26:17;;;;;;;;;;;;;;;6.59;85.29;100920.81;4183420;28;20043;-64
2023/01/10 06:28:19;;;;;;;;;;;;;;;6.60;85.32;100925.19;4168808;28;20011;-67
2023/01/10 06:30:21;;;;;;;;;;;;;;;6.62;85.08;100936.63;4166506;28;20019;-67
2023/01/10 06:32:23;;;;;;;;;;;;;;;6.61;85.25;100937.63;4168731;28;20052;-66
2023/01/10 06:34:25;;;;;;;;;;;;;;;6.62;84.87;100942.84;4171453;28;20458;-66
2023/01/10 06:36:28;;;;;;;;;;;;;;;6.62;85.05;100944.69;4187506;28;20027;-65
2023/01/10 06:38:30;;;;;;;;;;;;;;;6.61;85.01;100940.31;4155076;28;20013;-64
2023/01/10 06:40:33;;;;;;;;;;;;;;;6.60;85.04;100950.19;4155066;28;20033;-65
2023/01/10 06:42:35;;;;;;;;;;;;;;;6.59;85.02;100950.34;4153315;28;19921;-64
2023/01/10 06:44:37;;;;;;;;;;;;;;;6.58;84.92;100960.25;4154375;28;20032;-65
2023/01/10 06:46:39;;;;;;;;;;;;;;;6.57;85.19;100958.53;4153552;28;20027;-65
2023/01/10 06:48:42;;;;;;;;;;;;;;;6.58;85.02;100965.63;4154459;28;20418;-64
2023/01/10 06:50:44;;;;;;;;;;;;;;;6.61;84.98;100969.81;4155023;28;20466;-65
2023/01/10 06:52:48;;;;;;;;;;;;;;;6.60;84.88;100973.50;4171533;28;20008;-64
2023/01/10 06:54:51;;;;;;;;;;;;;;;6.60;84.66;100970.81;4184543;28;20007;-65
2023/01/10 06:56:53;;;;;;;;;;;;;;;6.60;84.63;100978.84;4184753;28;20007;-65
2023/01/10 06:58:55;;;;;;;;;;;;;;;6.60;84.74;100993.16;4184908;28;20014;-65
2023/01/10 07:00:57;;;;;;;;;;;;;;;6.60;84.62;100989.59;4185216;28;19975;-65
2023/01/10 07:03:00;;;;;;;;;;;;;;;6.60;84.68;100989.59;4184297;28;20043;-64
2023/01/10 07:05:01;;;;;;;;;;;;;;;6.60;84.77;100992.28;4186064;28;20019;-65
2023/01/10 07:07:03;;;;;;;;;;;;;;;6.61;85.10;100993.97;4176604;28;20015;-64
2023/01/10 07:09:07;;;;;;;;;;;;;;;6.60;84.83;101003.00;4181641;28;20016;-65
2023/01/10 07:11:09;;;;;;;;;;;;;;;6.58;84.97;101007.69;4185241;28;20007;-65
2023/01/10 07:13:11;;;;;;;;;;;;;;;6.58;84.77;101005.00;4186491;28;20015;-65
2023/01/10 07:15:13;;;;;;;;;;;;;;;6.58;85.00;101023.78;4178483;28;20763;-66
2023/01/10 07:17:15;;;;;;;;;;;;;;;6.58;84.75;101018.41;4186169;28;19925;-65
2023/01/10 07:19:18;;;;;;;;;;;;;;;6.57;84.64;101009.53;4172756;28;20020;-65
2023/01/10 07:21:20;;;;;;;;;;;;;;;6.57;84.64;101019.44;4170182;28;19983;-64
2023/01/10 07:23:22;;;;;;;;;;;;;;;6.55;84.77;101024.94;4166657;28;20027;-65
2023/01/10 07:25:26;;;;;;;;;;;;;;;6.56;84.45;101028.47;4168241;28;20027;-63
2023/01/10 07:27:30;;;;;;;;;;;;;;;6.56;84.72;101033.84;4175855;28;20019;-65
2023/01/10 07:29:32;;;;;;;;;;;;;;;6.56;84.73;101033.84;4187930;28;20034;-65
2023/01/10 07:31:34;;;;;;;;;;;;;;;6.55;84.49;101035.69;4186087;28;20028;-64
2023/01/10 07:33:36;;;;;;;;;;;;;;;6.55;84.39;101042.84;4188037;28;20007;-65
2023/01/10 07:35:38;;;;;;;;;;;;;;;6.54;84.63;101039.34;4189094;28;20018;-64
2023/01/10 07:37:40;;;;;;;;;;;;;;;6.54;84.26;101051.91;4188258;28;20015;-64
2023/01/10 07:39:42;;;;;;;;;;;;;;;6.54;84.15;101052.75;4189044;28;20019;-64
2023/01/10 07:41:48;;;;;;;;;;;;;;;6.55;84.35;101064.31;4188532;28;19967;-65
2023/01/10 07:43:50;;;;;;;;;;;;;;;6.55;84.07;101067.00;4187847;28;20019;-64
2023/01/10 07:45:52;;;;;;;;;;;;;;;6.52;84.06;101060.13;4185384;28;20039;-64
2023/01/10 07:47:56;;;;;;;;;;;;;;;6.52;83.96;101064.63;4184153;28;20588;-64
2023/01/10 07:49:57;;;;;;;;;;;;;;;6.51;83.93;101071.00;4187095;28;20011;-65
2023/01/10 07:51:59;;;;;;;;;;;;;;;6.51;84.22;101073.69;4185824;28;20430;-65
2023/01/10 07:54:01;;;;;;;;;;;;;;;6.51;84.11;101079.88;4188415;28;20020;-63
2023/01/10 07:56:04;;;;;;;;;;;;;;;6.52;84.06;101084.25;4187511;28;20019;-64
2023/01/10 07:58:07;;;;;;;;;;;;;;;6.51;83.78;101089.78;4188272;28;20023;-65
2023/01/10 08:00:10;;;;;;;;;;;;;;;6.51;83.90;101092.47;4188005;28;20450;-64
2023/01/10 08:02:12;;;;;;;;;;;;;;;6.52;84.17;101096.81;4186197;28;19931;-65
2023/01/10 08:04:14;;;;;;;;;;;;;;;6.51;83.74;101104.03;4188295;28;20031;-64
2023/01/10 08:06:16;;;;;;;;;;;;;;;6.52;84.21;101102.19;4187958;28;20024;-65
2023/01/10 08:08:18;;;;;;;;;;;;;;;6.51;84.18;101108.56;4187108;28;20343;-64
2023/01/10 08:10:20;;;;;;;;;;;;;;;6.52;84.16;101112.91;4187202;28;20019;-64
2023/01/10 08:12:23;;;;;;;;;;;;;;;6.53;84.06;101117.31;4180909;28;20053;-64
2023/01/10 08:14:26;;;;;;;;;;;;;;;6.54;83.81;101113.66;4171870;28;20631;-64
2023/01/10 08:16:28;;;;;;;;;;;;;;;6.55;83.67;101121.56;4172194;28;20023;-64
2023/01/10 08:18:30;;;;;;;;;;;;;;;6.57;83.66;101122.25;4172576;28;20454;-64
2023/01/10 08:20:32;;;;;;;;;;;;;;;6.58;83.35;101133.81;4173153;28;20022;-65
2023/01/10 08:22:34;;;;;;;;;;;;;;;6.58;83.77;101137.38;4179728;28;19925;-64
2023/01/10 08:24:36;;;;;;;;;;;;;;;6.59;83.64;101140.91;4187479;28;20445;-64
2023/01/10 08:26:38;;;;;;;;;;;;;;;6.58;83.65;101134.69;4185341;28;20027;-65
2023/01/10 08:28:40;;;;;;;;;;;;;;;6.59;83.45;101138.22;4187512;28;20370;-64
2023/01/10 08:30:43;;;;;;;;;;;;;;;6.60;83.54;101140.75;4186280;28;20481;-64
2023/01/10 08:32:46;;;;;;;;;;;;;;;6.62;83.34;101154.03;4185327;28;20035;-64
2023/01/10 08:34:47;;;;;;;;;;;;;;;6.63;83.28;101156.56;4184087;28;20004;-64
2023/01/10 08:36:50;;;;;;;;;;;;;;;6.63;83.28;101161.06;4186617;28;20012;-65
2023/01/10 08:38:53;;;;;;;;;;;;;;;6.63;83.09;101151.22;4187099;28;20835;-65
2023/01/10 08:40:56;;;;;;;;;;;;;;;6.64;83.20;101157.41;4186677;28;20020;-65
2023/01/10 08:42:58;;;;;;;;;;;;;;;6.64;83.11;101157.41;4186265;28;19920;-66
2023/01/10 08:45:01;;;;;;;;;;;;;;;6.66;83.15;101168.84;4187350;28;20352;-64
2023/01/10 08:47:04;;;;;;;;;;;;;;;6.65;82.94;101165.31;4187316;28;20012;-65
2023/01/10 08:49:06;;;;;;;;;;;;;;;6.65;83.21;101176.06;4187660;28;20019;-64
2023/01/10 08:51:08;;;;;;;;;;;;;;;6.64;82.97;101168.16;4187144;28;20023;-65
2023/01/10 08:53:12;;;;;;;;;;;;;;;6.63;82.92;101170.00;4187657;28;20003;-64
2023/01/10 08:55:14;;;;;;;;;;;;;;;6.63;83.15;101170.00;4187396;28;20027;-64
2023/01/10 08:57:16;;;;;;;;;;;;;;;6.65;83.31;101167.16;4187717;28;20406;-65
2023/01/10 08:59:18;;;;;;;;;;;;;;;6.66;83.29;101175.09;4188255;28;20019;-65
2023/01/10 09:01:20;;;;;;;;;;;;;;;6.67;83.36;101176.75;4188387;28;20015;-64
2023/01/10 09:03:23;;;;;;;;;;;;;;;6.71;83.53;101182.72;4187371;28;20449;-65
2023/01/10 09:05:25;;;;;;;;;;;;;;;6.72;83.44;101180.88;4188097;28;20027;-64
2023/01/10 09:07:27;;;;;;;;;;;;;;;6.76;83.29;101193.03;4186997;28;20457;-64
2023/01/10 09:09:29;;;;;;;;;;;;;;;6.79;83.37;101195.44;4188841;28;20011;-64
2023/01/10 09:11:31;;;;;;;;;;;;;;;6.80;83.10;101191.75;4188488;28;20367;-64
2023/01/10 09:13:33;;;;;;;;;;;;;;;6.82;82.75;101195.16;4186567;28;20015;-65
2023/01/10 09:15:37;;;;;;;;;;;;;;;6.83;82.74;101189.66;4186106;28;20376;-64
2023/01/10 09:17:39;;;;;;;;;;;;;;;6.86;82.52;101196.53;4187223;28;20364;-65
2023/01/10 09:19:42;;;;;;;;;;;;;;;6.88;82.41;101205.34;4187979;28;20023;-65
2023/01/10 09:21:44;;;;;;;;;;;;;;;6.90;82.54;101210.56;4186967;28;20040;-65
2023/01/10 09:23:46;;;;;;;;;;;;;;;6.89;82.43;101204.31;4187776;28;20005;-65
2023/01/10 09:25:49;;;;;;;;;;;;;;;6.92;82.10;101213.94;4187438;28;20011;-65
2023/01/10 09:27:55;;;;;;;;;;;;;;;6.96;82.27;101209.97;4186568;28;20035;-65
2023/01/10 09:29:57;;;;;;;;;;;;;;;6.98;82.25;101216.91;4186151;28;20047;-64
2023/01/10 09:31:59;;;;;;;;;;;;;;;7.02;82.10;101215.63;4187001;28;20022;-65
2023/01/10 09:34:01;;;;;;;;;;;;;;;7.04;81.73;101220.88;4186485;28;20555;-64
2023/01/10 09:36:05;;;;;;;;;;;;;;;7.06;81.46;101232.31;4188063;28;20392;-65
2023/01/10 09:38:07;;;;;;;;;;;;;;;7.08;81.86;101216.88;4186057;28;20010;-66
2023/01/10 09:40:10;;;;;;;;;;;;;;;7.09;81.26;101220.44;4187626;28;20015;-65
2023/01/10 09:42:19;;;;;;;;;;;;;;;7.13;81.41;101229.91;4186720;28;20003;-64
2023/01/10 09:44:24;;;;;;;;;;;;;;;7.15;81.29;101238.69;4186665;28;19924;-65
2023/01/10 09:46:27;;;;;;;;;;;;;;;7.17;81.18;101247.44;4187758;28;20028;-64
2023/01/10 09:48:31;;;;;;;;;;;;;;;7.18;81.02;101236.53;4186816;28;20028;-65
2023/01/10 09:50:35;;;;;;;;;;;;;;;7.19;80.92;101243.63;4186875;28;20015;-65
2023/01/10 09:52:39;;;;;;;;;;;;;;;7.19;81.27;101243.63;4185621;28;20051;-65
2023/01/10 09:54:41;;;;;;;;;;;;;;;7.19;81.02;101240.94;4187502;28;20023;-65
2023/01/10 09:56:43;;;;;;;;;;;;;;;7.20;80.97;101239.09;4186407;28;20426;-65
2023/01/10 09:58:45;;;;;;;;;;;;;;;7.20;80.90;101241.78;4186560;28;20003;-65
2023/01/10 10:00:48;;;;;;;;;;;;;;;7.20;81.03;101241.78;4186694;28;20418;-65
2023/01/10 10:02:52;;;;;;;;;;;;;;;7.20;81.17;101247.16;4185627;28;19998;-65
2023/01/10 10:04:59;;;;;;;;;;;;;;;7.18;81.01;101249.13;4186942;28;19951;-66
2023/01/10 10:07:00;;;;;;;;;;;;;;;7.16;81.15;101249.28;4186944;28;20015;-65
2023/01/10 10:09:04;;;;;;;;;;;;;;;7.14;81.34;101245.88;4186510;28;20031;-64
2023/01/10 10:11:14;;;;;;;;;;;;;;;7.12;81.48;101244.34;4187420;28;20019;-66
2023/01/10 10:13:17;;;;;;;;;;;;;;;7.14;81.53;101247.72;4186963;28;20011;-65
2023/01/10 10:15:21;;;;;;;;;;;;;;;7.15;81.47;101246.75;4186165;28;20019;-64
2023/01/10 10:17:29;;;;;;;;;;;;;;;7.15;81.63;101250.25;4186446;28;20023;-65
2023/01/10 10:19:33;;;;;;;;;;;;;;;7.14;81.36;101245.88;4187849;28;20023;-65
2023/01/10 10:21:37;;;;;;;;;;;;;;;7.13;81.39;101246.88;4186496;28;20020;-64
2023/01/10 10:23:42;;;;;;;;;;;;;;;7.14;81.45;101253.94;4187162;28;20027;-64
2023/01/10 10:25:49;;;;;;;;;;;;;;;7.14;81.71;101255.78;4169875;28;20323;-65
2023/01/10 10:27:55;;;;;;;;;;;;;;;7.14;81.48;101253.94;4186183;28;20003;-65
2023/01/10 10:30:00;;;;;;;;;;;;;;;7.13;81.12;101254.94;4186178;28;20438;-65
2023/01/10 10:32:23;;;;;;;;;;;;;;;7.12;81.51;101255.91;4186846;28;20022;-65
2023/01/10 10:34:27;;;;;;;;;;;;;;;7.12;81.52;101255.91;4181303;28;20004;-65
2023/01/10 10:36:30;;;;;;;;;;;;;;;7.15;81.41;101261.00;4186501;28;20031;-65
2023/01/10 10:38:34;;;;;;;;;;;;;;;7.14;81.24;101261.16;4185374;28;20452;-64
2023/01/10 10:40:37;;;;;;;;;;;;;;;7.15;81.19;101265.53;4186406;28;20338;-64
2023/01/10 10:42:42;;;;;;;;;;;;;;;7.16;81.58;101276.16;4185021;28;20023;-65
2023/01/10 10:44:45;;;;;;;;;;;;;;;7.16;81.18;101280.66;4185520;28;20020;-65
2023/01/10 10:46:47;;;;;;;;;;;;;;;7.18;81.25;101281.38;4186124;28;20019;-65
2023/01/10 10:48:50;;;;;;;;;;;;;;;7.18;81.43;101278.69;4187273;28;20015;-65
2023/01/10 10:50:54;;;;;;;;;;;;;;;7.18;81.29;101284.91;4185981;28;20478;-63
2023/01/10 10:52:56;;;;;;;;;;;;;;;7.18;80.87;101274.16;4185232;28;20011;-64
2023/01/10 10:54:58;;;;;;;;;;;;;;;7.18;81.17;101284.91;4186344;28;20011;-64
2023/01/10 10:57:00;;;;;;;;;;;;;;;7.19;80.79;101283.06;4185957;28;19999;-64